createdAt,value
2017-10-04T00:01:15.545Z,100042.41
2017-10-04T00:05:19.027Z,100043.78
2017-10-04T00:09:22.492Z,100049.64
2017-10-04T00:13:26.747Z,100047.05
2017-10-04T00:17:30.211Z,100055.77
2017-10-04T00:21:33.695Z,100069.81
2017-10-04T00:25:37.172Z,100077.17
2017-10-04T00:29:40.751Z,100078.53
2017-10-04T00:33:44.962Z,100080.02
2017-10-04T00:37:48.500Z,100067.34
2017-10-04T00:41:51.955Z,100057.39
2017-10-04T00:45:55.430Z,100057.89
2017-10-04T00:49:58.883Z,100053.94
2017-10-04T00:54:02.371Z,100044.39
2017-10-04T00:58:05.828Z,100038.12
2017-10-04T01:02:09.310Z,100040.30
2017-10-04T01:06:12.800Z,100039.07
2017-10-04T01:10:16.284Z,100035.94
2017-10-04T01:14:19.748Z,100033.75
2017-10-04T01:18:24.287Z,100031.16
2017-10-04T01:22:28.510Z,100032.52
2017-10-04T01:26:33.148Z,100034.42
2017-10-04T01:30:37.368Z,100027.70
2017-10-04T01:34:41.905Z,100024.16
2017-10-04T01:38:46.126Z,100020.47
2017-10-04T01:42:49.940Z,100017.34
2017-10-04T01:46:54.171Z,100006.56
2017-10-04T01:50:57.981Z,100005.61
2017-10-04T01:55:02.207Z,100008.88
2017-10-04T01:59:06.455Z,100002.19
2017-10-04T02:03:09.919Z,99994.42
2017-10-04T02:07:13.760Z,99988.15
2017-10-04T02:11:17.201Z,99992.37
2017-10-04T02:15:20.976Z,99979.69
2017-10-04T02:19:25.195Z,99988.82
2017-10-04T02:23:28.658Z,99994.81
2017-10-04T02:27:32.081Z,99983.91
2017-10-04T02:31:35.903Z,99987.14
2017-10-04T02:35:39.354Z,99978.55
2017-10-04T02:39:42.853Z,99985.91
2017-10-04T02:43:46.315Z,99995.99
2017-10-04T02:47:50.167Z,99991.91
2017-10-04T02:51:54.390Z,99995.99
2017-10-04T02:55:58.928Z,99987.41
2017-10-04T03:00:02.388Z,99985.34
2017-10-04T03:04:05.881Z,99985.76
2017-10-04T03:08:09.332Z,99980.84
2017-10-04T03:12:13.578Z,99971.85
2017-10-04T03:16:17.036Z,99961.90
2017-10-04T03:20:20.778Z,99970.17
2017-10-04T03:24:25.000Z,99974.80
2017-10-04T03:28:28.490Z,99979.30
2017-10-04T03:32:32.000Z,99965.80
2017-10-04T03:36:35.480Z,99955.31
2017-10-04T03:40:38.926Z,99953.67
2017-10-04T03:44:42.402Z,99948.63
2017-10-04T03:48:45.859Z,99943.31
2017-10-04T03:52:50.392Z,99946.16
2017-10-04T03:56:54.606Z,99936.62
2017-10-04T04:00:59.161Z,99935.80
2017-10-04T04:05:02.618Z,99933.48
2017-10-04T04:09:06.091Z,99940.94
2017-10-04T04:13:09.542Z,99943.67
2017-10-04T04:17:13.023Z,99942.30
2017-10-04T04:21:16.469Z,99940.12
2017-10-04T04:25:21.017Z,99931.09
2017-10-04T04:29:25.230Z,99934.67
2017-10-04T04:33:29.474Z,99922.50
2017-10-04T04:37:32.935Z,99916.36
2017-10-04T04:41:36.413Z,99913.22
2017-10-04T04:45:39.867Z,99909.55
2017-10-04T04:49:43.707Z,99899.19
2017-10-04T04:53:47.927Z,99890.19
2017-10-04T04:57:52.174Z,99880.75
2017-10-04T05:01:55.635Z,99870.70
2017-10-04T05:05:59.168Z,99881.19
2017-10-04T05:10:03.401Z,99882.66
2017-10-04T05:14:07.651Z,99881.55
2017-10-04T05:18:11.119Z,99886.05
2017-10-04T05:22:15.498Z,99882.09
2017-10-04T05:26:18.961Z,99870.23
2017-10-04T05:30:23.208Z,99884.81
2017-10-04T05:34:26.663Z,99877.72
2017-10-04T05:38:30.510Z,99869.14
2017-10-04T05:42:34.729Z,99873.73
2017-10-04T05:46:38.996Z,99877.00
2017-10-04T05:50:42.449Z,99873.33
2017-10-04T05:54:45.922Z,99854.79
2017-10-04T05:58:49.382Z,99860.42
2017-10-04T06:02:53.631Z,99871.19
2017-10-04T06:06:57.087Z,99877.20
2017-10-04T06:11:00.567Z,99870.44
2017-10-04T06:15:04.049Z,99875.62
2017-10-04T06:19:07.535Z,99871.75
2017-10-04T06:23:11.754Z,99860.87
2017-10-04T06:27:15.995Z,99864.19
2017-10-04T06:31:20.252Z,99863.92
2017-10-04T06:35:23.724Z,99860.52
2017-10-04T06:39:28.079Z,99860.80
2017-10-04T06:43:31.568Z,99862.16
2017-10-04T06:47:35.018Z,99864.37
2017-10-04T06:51:38.499Z,99875.97
2017-10-04T06:55:41.951Z,99878.57
2017-10-04T06:59:45.705Z,99885.80
2017-10-04T07:03:49.154Z,99879.93
2017-10-04T07:07:52.924Z,99864.80
2017-10-04T07:11:56.459Z,99864.67
2017-10-04T07:15:59.939Z,99857.86
2017-10-04T07:20:03.399Z,99880.21
2017-10-04T07:24:07.251Z,99878.30
2017-10-04T07:28:11.491Z,99884.17
2017-10-04T07:32:14.970Z,99877.35
2017-10-04T07:36:18.418Z,99886.89
2017-10-04T07:40:22.202Z,99872.03
2017-10-04T07:44:26.414Z,99875.17
2017-10-04T07:48:29.894Z,99872.98
2017-10-04T07:52:33.351Z,99855.27
2017-10-04T07:56:37.648Z,99848.86
2017-10-04T08:00:41.101Z,99840.27
2017-10-04T08:04:44.577Z,99842.87
2017-10-04T08:08:48.790Z,99836.77
2017-10-04T08:12:52.274Z,99842.64
2017-10-04T08:16:55.735Z,99834.45
2017-10-04T08:20:59.214Z,99833.09
2017-10-04T08:25:02.678Z,99820.28
2017-10-04T08:29:06.154Z,99822.34
2017-10-04T08:33:10.384Z,99834.19
2017-10-04T08:37:14.186Z,99838.16
2017-10-04T08:41:18.402Z,99828.78
2017-10-04T08:45:22.642Z,99826.47
2017-10-04T08:49:26.859Z,99825.66
2017-10-04T08:53:31.115Z,99837.92
2017-10-04T08:57:34.579Z,99823.34
2017-10-04T09:01:38.071Z,99811.61
2017-10-04T09:10:14.747Z,99827.97
2017-10-04T09:14:18.268Z,99826.70
2017-10-04T09:18:22.483Z,99829.43
2017-10-04T09:22:25.944Z,99818.66
2017-10-04T09:26:30.187Z,99820.56
2017-10-04T09:30:34.428Z,99827.09
2017-10-04T09:34:37.922Z,99830.37
2017-10-04T09:38:41.370Z,99838.95
2017-10-04T09:42:44.851Z,99824.92
2017-10-04T09:46:48.310Z,99822.19
2017-10-04T09:50:51.787Z,99814.96
2017-10-04T09:54:55.288Z,99819.46
2017-10-04T09:58:58.817Z,99802.70
2017-10-04T10:03:02.347Z,99809.10
2017-10-04T10:07:05.847Z,99782.35
2017-10-04T10:11:09.298Z,99783.31
2017-10-04T10:15:13.108Z,99785.21
2017-10-04T10:19:16.563Z,99812.06
2017-10-04T10:23:20.041Z,99823.92
2017-10-04T10:27:23.497Z,99820.91
2017-10-04T10:31:26.988Z,99806.33
2017-10-04T10:35:30.418Z,99795.84
2017-10-04T10:39:34.240Z,99782.20
2017-10-04T10:43:38.458Z,99772.67
2017-10-04T10:47:41.931Z,99768.03
2017-10-04T10:51:45.422Z,99758.49
2017-10-04T10:55:48.907Z,99744.05
2017-10-04T10:59:52.375Z,99744.32
2017-10-04T11:03:56.128Z,99745.14
2017-10-04T11:07:59.588Z,99759.73
2017-10-04T11:12:03.083Z,99756.45
2017-10-04T11:16:06.534Z,99755.63
2017-10-04T11:20:10.819Z,99763.81
2017-10-04T11:24:14.280Z,99756.59
2017-10-04T11:28:18.099Z,99768.45
2017-10-04T11:32:21.551Z,99755.36
2017-10-04T11:36:25.039Z,99761.77
2017-10-04T11:40:28.491Z,99767.22
2017-10-04T11:44:32.322Z,99758.09
2017-10-04T11:48:36.543Z,99750.31
2017-10-04T11:52:40.782Z,99754.27
2017-10-04T11:56:45.016Z,99740.10
2017-10-04T12:00:48.859Z,99742.18
2017-10-04T12:04:52.338Z,99736.59
2017-10-04T12:08:56.134Z,99734.41
2017-10-04T12:13:00.354Z,99726.10
2017-10-04T12:17:04.900Z,99714.52
2017-10-04T12:21:09.129Z,99711.25
2017-10-04T12:25:12.607Z,99714.39
2017-10-04T12:29:16.063Z,99708.02
2017-10-04T12:33:19.851Z,99701.20
2017-10-04T12:37:24.071Z,99697.39
2017-10-04T12:41:28.323Z,99676.39
2017-10-04T12:45:31.771Z,99681.58
2017-10-04T12:49:35.255Z,99684.72
2017-10-04T12:53:38.722Z,99668.36
2017-10-04T12:57:43.259Z,99682.41
2017-10-04T13:01:47.490Z,99679.27
2017-10-04T13:05:50.975Z,99660.05
2017-10-04T13:09:55.216Z,99660.90
2017-10-04T13:13:59.492Z,99653.13
2017-10-04T13:18:02.974Z,99649.72
2017-10-04T13:22:06.463Z,99655.04
2017-10-04T13:26:10.105Z,99653.55
2017-10-04T13:30:13.602Z,99661.18
2017-10-04T13:34:17.103Z,99658.77
2017-10-04T13:38:20.582Z,99661.05
2017-10-04T13:42:24.846Z,99646.90
2017-10-04T13:46:28.334Z,99638.17
2017-10-04T13:50:31.791Z,99639.27
2017-10-04T13:54:35.270Z,99644.72
2017-10-04T13:58:39.227Z,99642.98
2017-10-04T14:02:42.712Z,99624.82
2017-10-04T14:11:30.101Z,99610.54
2017-10-04T14:15:32.807Z,99609.17
2017-10-04T14:19:36.353Z,99612.18
2017-10-04T14:23:39.060Z,99596.50
2017-10-04T14:27:41.810Z,99601.23
2017-10-04T14:31:45.287Z,99592.23
2017-10-04T14:35:48.023Z,99599.59
2017-10-04T14:39:50.723Z,99596.73
2017-10-04T14:43:53.718Z,99585.96
2017-10-04T14:47:56.439Z,99585.14
2017-10-04T14:51:59.575Z,99566.57
2017-10-04T14:56:03.046Z,99586.61
2017-10-04T15:04:02.367Z,99560.88
2017-10-04T15:08:05.814Z,99567.29
2017-10-04T15:12:10.084Z,99556.69
2017-10-04T15:16:13.541Z,99560.03
2017-10-04T15:20:17.019Z,99559.20
2017-10-04T15:24:20.642Z,99566.33
2017-10-04T15:28:24.931Z,99559.41
2017-10-04T15:32:28.398Z,99553.41
2017-10-04T15:36:32.762Z,99547.84
2017-10-04T15:40:36.663Z,99542.66
2017-10-04T15:44:40.146Z,99533.80
2017-10-04T15:48:44.377Z,99541.47
2017-10-04T15:52:48.628Z,99553.20
2017-10-04T15:56:52.110Z,99525.10
2017-10-04T16:00:56.362Z,99536.42
2017-10-04T16:04:59.820Z,99536.42
2017-10-04T16:09:03.297Z,99554.02
2017-10-04T16:13:06.753Z,99555.92
2017-10-04T16:17:10.676Z,99541.47
2017-10-04T16:21:14.895Z,99559.06
2017-10-04T16:25:18.500Z,99551.84
2017-10-04T16:29:21.960Z,99533.69
2017-10-04T16:33:25.440Z,99521.42
2017-10-04T16:37:29.666Z,99521.52
2017-10-04T16:41:34.209Z,99526.98
2017-10-04T16:45:37.667Z,99540.76
2017-10-04T16:49:41.415Z,99511.30
2017-10-04T16:53:45.647Z,99519.20
2017-10-04T16:57:49.452Z,99522.89
2017-10-04T17:01:53.679Z,99508.44
2017-10-04T17:05:58.204Z,99523.58
2017-10-04T17:10:02.425Z,99527.66
2017-10-04T17:14:06.961Z,99523.27
2017-10-04T17:18:11.197Z,99543.31
2017-10-04T17:22:15.822Z,99522.45
2017-10-04T17:26:20.039Z,99524.91
2017-10-04T17:30:24.583Z,99530.36
2017-10-04T17:34:28.840Z,99518.64
2017-10-04T17:38:32.619Z,99512.36
2017-10-04T17:42:36.847Z,99511.95
2017-10-04T17:46:41.370Z,99507.45
2017-10-04T17:50:45.603Z,99523.41
2017-10-04T17:54:50.135Z,99526.69
2017-10-04T17:58:54.372Z,99513.56
2017-10-04T18:02:58.189Z,99524.61
2017-10-04T18:07:01.656Z,99520.92
2017-10-04T18:11:05.506Z,99487.78
2017-10-04T18:15:09.738Z,99496.92
2017-10-04T18:19:13.543Z,99485.20
2017-10-04T18:23:17.765Z,99481.24
2017-10-04T18:27:22.310Z,99493.52
2017-10-04T18:31:25.767Z,99505.37
2017-10-04T18:35:29.626Z,99504.42
2017-10-04T18:39:33.854Z,99495.83
2017-10-04T18:43:38.483Z,99504.97
2017-10-04T18:47:41.954Z,99508.66
2017-10-04T18:51:45.718Z,99503.34
2017-10-04T18:55:49.177Z,99510.70
2017-10-04T18:59:53.031Z,99499.65
2017-10-04T19:03:57.256Z,99508.38
2017-10-04T19:08:01.883Z,99516.97
2017-10-04T19:12:06.115Z,99492.42
2017-10-04T19:16:10.648Z,99508.89
2017-10-04T19:20:14.113Z,99481.63
2017-10-04T19:24:17.961Z,99478.08
2017-10-04T19:28:22.178Z,99471.27
2017-10-04T19:32:26.008Z,99482.17
2017-10-04T19:36:30.228Z,99470.03
2017-10-04T19:40:34.769Z,99461.85
2017-10-04T19:44:38.997Z,99479.98
2017-10-04T19:48:42.818Z,99495.53
2017-10-04T19:52:46.286Z,99491.03
2017-10-04T19:56:50.041Z,99465.13
2017-10-04T20:00:53.508Z,99457.77
2017-10-04T20:04:57.359Z,99468.80
2017-10-04T20:09:00.967Z,99456.67
2017-10-04T20:13:05.462Z,99461.58
2017-10-04T20:17:08.926Z,99488.03
2017-10-04T20:21:12.719Z,99478.08
2017-10-04T20:25:16.956Z,99441.27
2017-10-04T20:29:20.711Z,99442.49
2017-10-04T20:33:24.170Z,99434.86
2017-10-04T20:37:27.971Z,99436.22
2017-10-04T20:41:32.183Z,99438.13
2017-10-04T20:45:36.011Z,99450.27
2017-10-04T20:49:40.232Z,99461.98
2017-10-04T20:53:44.776Z,99450.67
2017-10-04T20:57:48.994Z,99429.27
2017-10-04T21:01:53.538Z,99425.72
2017-10-04T21:05:57.000Z,99424.49
2017-10-04T21:10:00.861Z,99434.45
2017-10-04T21:14:04.323Z,99456.12
2017-10-04T21:18:08.194Z,99457.77
2017-10-04T21:22:11.658Z,99444.94
2017-10-04T21:26:15.504Z,99423.27
2017-10-04T21:30:19.782Z,99454.08
2017-10-04T21:34:23.548Z,99437.86
2017-10-04T21:38:27.758Z,99449.72
2017-10-04T21:42:32.294Z,99421.63
2017-10-04T21:46:36.520Z,99448.91
2017-10-04T21:50:41.055Z,99417.13
2017-10-04T21:54:45.267Z,99404.05
2017-10-04T21:58:49.099Z,99424.73
2017-10-04T22:02:53.326Z,99434.28
2017-10-04T22:06:57.836Z,99419.83
2017-10-04T22:11:01.284Z,99418.06
2017-10-04T22:15:05.071Z,99425.02
2017-10-04T22:19:09.290Z,99417.38
2017-10-04T22:23:13.835Z,99396.66
2017-10-04T22:27:18.200Z,99380.30
2017-10-04T22:31:21.974Z,99374.98
2017-10-04T22:35:26.203Z,99360.64
2017-10-04T22:39:30.735Z,99349.32
2017-10-04T22:43:34.946Z,99351.38
2017-10-04T22:47:39.496Z,99349.59
2017-10-04T22:51:42.975Z,99330.24
2017-10-04T22:55:46.814Z,99314.30
2017-10-04T22:59:51.031Z,99318.08
2017-10-04T23:03:55.524Z,99311.41
2017-10-04T23:07:58.987Z,99304.73
2017-10-04T23:12:02.795Z,99289.47
2017-10-04T23:16:07.023Z,99294.51
2017-10-04T23:20:10.826Z,99287.97
2017-10-04T23:24:15.046Z,99292.47
2017-10-04T23:28:19.543Z,99273.38
2017-10-04T23:32:22.999Z,99286.17
2017-10-04T23:36:27.536Z,99277.58
2017-10-04T23:40:30.988Z,99276.36
2017-10-04T23:44:34.749Z,99267.91
2017-10-04T23:48:38.971Z,99251.55
2017-10-04T23:52:43.507Z,99257.55
2017-10-04T23:56:47.747Z,99244.88
